岡山グライダークラブ活動状況掲示板あなたは無料カウンター人目の訪問者です

岡山グライダークラブ
岡山市浦安南町639-1 岡南飛行場
 使用機:シャイベ式 SF25C型 ファルケ   JA2330
      ヴァレンティン式17E型 タイフーン  JA2342
 練習日:毎日曜日  クラブルーム:電話 086-265-1810
この掲示板は岡山グライダークラブの活動状況をお知らせする掲示板です。
!!!この掲示板は投稿規制をしています。!!!
クラブ関連各種情報は 岡山グライダークラブクラブルーム      を       .
  ブリーフイング情報は  岡山グライダークラブブリーフィングルーム  をご覧下さい。 .
※写真はクリックすると拡大して見ることが出来ます。
岡南飛行場へのアクセス等は 岡南飛行場管理事務所 をご覧ください。
クラブの ホームページ ができました。

 
02月23日
by OGC at 2020/2/24(月) 01:06:49 No.20200224010419  削除コメント
1024 x 768 x 69,169バイト
No.1

02月23日
本日の参加者
  会員      14名
  その他      0名


@本日の様子


METAR
RJBK 230000Z 26012G17KT 25KM FEW030CU 09/M02 Q1026 A3031
RJOB 230000Z 28009KT 250V330 9999 FEW030 SCT045 07/M03 Q1025
RJOT 230000Z 29015KT 9999 FEW030 08/M02 Q1025
RJOA 230000Z 30011KT 9999 FEW030 SCT040 06/M05 Q1026
TAF
RJOB 222309Z 2300/2406 29009KT 9999 FEW025 SCT045
RJOT 222305Z 2300/2406 27014KT 9999 FEW030
     BECMG 2310/2312 20006KT
RJOA 222306Z 2300/2406 30010KT 9999 FEW030
     BECMG 2321/2400 19004KT

本日は、西風が少し強く、久々に試運転を西向きで行いました。
積雲がポコポコと出来てたので、みんなサーマル狙っていたようですが、サーマルが小さくすぐ外されていたようです。
また、本日特定技能審査を実施し1名合格しました。

解散    17:30

1番機  10:50離陸 撤収機  17:05着陸 

SF25C JA2330 ファルケ     11Flt.3h25min  
17E   JA2342 タイフーン    06Flt.2h20min  
合計                    17Flt.5h45min

    << 戻る || ホームページ || 最新の掲示板へ